createdAt,value
2022-09-28T00:07:17.961Z,12.47
2022-09-28T00:17:22.834Z,12.42
2022-09-28T00:27:25.864Z,12.41
2022-09-28T00:37:28.758Z,12.37
2022-09-28T00:47:50.998Z,12.32
2022-09-28T00:57:58.494Z,12.29
2022-09-28T01:08:02.367Z,12.20
2022-09-28T01:18:17.764Z,12.08
2022-09-28T01:28:29.233Z,11.97
2022-09-28T01:38:35.874Z,11.69
2022-09-28T01:48:46.349Z,11.51
2022-09-28T01:59:24.992Z,11.35
2022-09-28T02:09:42.050Z,11.29
2022-09-28T02:19:45.209Z,11.18
2022-09-28T02:29:49.594Z,11.09
2022-09-28T02:39:52.706Z,11.02
2022-09-28T02:50:06.159Z,10.79
2022-09-28T03:00:15.162Z,10.78
2022-09-28T03:10:51.711Z,10.57
2022-09-28T03:20:55.715Z,10.52
2022-09-28T03:30:59.266Z,10.52
2022-09-28T03:41:02.356Z,10.54
2022-09-28T03:51:09.358Z,10.57
2022-09-28T04:01:18.621Z,10.46
2022-09-28T04:11:21.977Z,10.21
2022-09-28T04:21:25.270Z,10.22
2022-09-28T04:31:30.625Z,10.16
2022-09-28T04:41:34.430Z,9.84
2022-09-28T04:51:37.361Z,9.98
2022-09-28T05:01:40.451Z,9.95
2022-09-28T05:11:46.353Z,9.94
2022-09-28T05:21:58.070Z,10.02
2022-09-28T05:32:01.844Z,9.94
2022-09-28T05:42:06.027Z,10.02
2022-09-28T05:52:09.066Z,10.17
2022-09-28T06:02:12.956Z,10.30
2022-09-28T06:12:17.430Z,11.91
2022-09-28T06:22:20.757Z,12.13
2022-09-28T06:32:24.699Z,11.47
2022-09-28T06:42:27.939Z,12.62
2022-09-28T06:52:34.352Z,13.01
2022-09-28T07:02:38.688Z,13.95
2022-09-28T07:12:42.537Z,13.86
2022-09-28T07:22:48.419Z,14.36
2022-09-28T07:32:52.462Z,14.79
2022-09-28T07:42:56.343Z,15.54
2022-09-28T07:53:00.639Z,14.98
2022-09-28T08:03:04.485Z,16.15
2022-09-28T08:13:08.795Z,17.11
2022-09-28T08:23:12.488Z,16.84
2022-09-28T08:33:23.497Z,16.43
2022-09-28T08:43:57.054Z,17.80
2022-09-28T08:54:06.847Z,18.19
2022-09-28T09:04:14.994Z,18.63
2022-09-28T09:14:25.168Z,18.71
2022-09-28T09:24:58.966Z,18.47
2022-09-28T09:35:22.250Z,18.79
2022-09-28T09:45:45.398Z,17.78
2022-09-28T09:55:57.315Z,19.52
2022-09-28T10:06:06.416Z,18.82
2022-09-28T10:16:09.518Z,19.32
2022-09-28T10:26:25.058Z,20.95
2022-09-28T10:36:28.914Z,20.20
2022-09-28T10:46:34.773Z,19.59
2022-09-28T10:56:44.770Z,20.95
2022-09-28T11:06:51.781Z,19.86
2022-09-28T11:17:29.164Z,19.65
2022-09-28T11:27:35.562Z,19.76
2022-09-28T11:37:44.499Z,20.58
2022-09-28T11:47:47.987Z,20.59
2022-09-28T11:58:04.277Z,19.86
2022-09-28T12:08:46.623Z,20.37
2022-09-28T12:19:02.433Z,20.55
2022-09-28T12:29:13.848Z,19.99
2022-09-28T12:39:40.821Z,19.59
2022-09-28T12:50:36.919Z,18.83
2022-09-28T13:00:23.374Z,18.94
2022-09-28T13:10:50.364Z,19.06
2022-09-28T13:21:10.390Z,18.45
2022-09-28T13:31:20.351Z,18.47
2022-09-28T13:41:34.120Z,18.80
2022-09-28T13:52:05.309Z,18.07
2022-09-28T14:02:33.310Z,17.87
2022-09-28T14:12:36.166Z,17.48
2022-09-28T14:23:26.788Z,17.16
2022-09-28T14:33:32.462Z,17.28
2022-09-28T14:43:44.349Z,16.97
2022-09-28T14:53:50.767Z,16.60
2022-09-28T15:03:56.680Z,16.36
2022-09-28T15:14:08.375Z,16.03
2022-09-28T15:24:34.731Z,15.79
2022-09-28T15:34:52.839Z,15.66
2022-09-28T15:45:01.906Z,15.58
2022-09-28T15:55:18.763Z,15.57
2022-09-28T16:05:46.776Z,15.34
2022-09-28T16:15:59.772Z,15.29
2022-09-28T16:26:12.105Z,15.11
2022-09-28T16:36:19.813Z,14.84
2022-09-28T16:46:29.547Z,14.62
2022-09-28T16:56:34.244Z,14.55
2022-09-28T17:06:37.611Z,14.37
2022-09-28T17:17:06.808Z,14.12
2022-09-28T17:27:06.962Z,13.78
2022-09-28T17:37:14.574Z,13.53
2022-09-28T17:47:17.955Z,13.39
2022-09-28T17:57:21.343Z,13.12
